• Join FlightAware (Why Join?)
  • Login
  • US Flag 
08:06AM EST


 

Airport Tracker/Info


-or-


 

Live Flight TrackerFlight Track Log ✈ ASH3751 ✈ 21-Jun-2013 ✈ KORD - KALB

Flight Track Log - Related Links

Times and Time Zones

All times are in EDT time to prevent confusion due to time zone crossing. See the ASH3751 flight status page for this flight to view local times or setup timezone preferences in your user account.

Time Position Orientation Groundspeed Altitude Reporting Facility
EDT Latitude Longitude Course Direction KTS MPH feet Rate Location/Type
11:11PM 41.9667 -87.8667 83° East 169 194 1,900  Level Chicago TRACON
11:12PM 41.9833 -87.8000 71° East 242 278 3,200 1,800 Climbing Chicago TRACON
11:13PM 42.0203 -87.6831 67° East 272 313 5,800 2,340 Climbing Chicago Center
11:14PM 42.1301 -87.4519 63° Northeast  Level FlightAware Approximate
11:15PM 42.1842 -87.2975 66° East  Level FlightAware Approximate
11:15PM 42.0436 -87.5747 74° East 297 342 8,800  Level Chicago Center
11:16PM 42.2361 -87.1416 66° East  Level FlightAware Approximate
11:16PM 42.0806 -87.4761 63° Northeast 303 349 11,300  Level Chicago Center
11:17PM 42.2510 -86.9878 83° East  Level Estimated
11:17PM 42.1281 -87.3772 57° Northeast 311 358 13,000  Level Chicago Center
11:18PM 42.1822 -87.2647 57° Northeast 355 409 14,800 2,160 Climbing Chicago Center
11:19PM 42.2475 -87.1267 57° Northeast 365 420 17,400 2,160 Climbing Chicago Center
11:20PM 42.2806 -86.9947 71° East 382 440 19,200 1,800 Climbing Chicago Center
11:21PM 42.2872 -86.8522 86° East 386 444 21,100 1,620 Climbing Chicago Center
11:22PM 42.2939 -86.7069 86° East 390 449 22,500 1,320 Climbing Chicago Center
11:23PM 42.2986 -86.5717 87° East 402 463 23,800 1,320 Climbing Chicago Center
11:24PM 42.3047 -86.3947 87° East 411 473 25,300 1,260 Climbing Chicago Center
11:25PM 42.3103 -86.2375 87° East 420 483 26,400 1,080 Climbing Chicago Center
11:26PM 42.3156 -86.0778 87° East 428 493 27,500 1,020 Climbing Chicago Center
11:27PM 42.3131 -85.9147 91° East 436 502 28,500 960 Climbing Chicago Center
11:28PM 42.3114 -85.7492 91° East 443 510 29,500 960 Climbing Chicago Center
11:29PM 42.3094 -85.5811 91° East 448 516 30,500 720 Climbing Chicago Center
11:30PM 42.3061 -85.3756 91° East 458 527 31,000 240 Climbing Chicago Center
11:31PM 42.3039 -85.1967 91° East 475 547 31,000  Level Chicago Center
11:32PM 42.3006 -85.0167 91° East 480 552 31,000  Level Chicago Center
11:33PM 42.2964 -84.8381 92° East 479 551 31,000  Level Chicago Center
11:34PM 42.2925 -84.6583 92° East 480 552 31,000  Level Chicago Center
11:35PM 42.2886 -84.4786 92° East 480 552 31,000  Level Chicago Center
11:35PM 42.3003 -84.3594 82° East 478 550 31,000  Level Cleveland Center
11:36PM 42.3267 -84.1811 79° East 478 550 31,000  Level Cleveland Center
11:37PM 42.3508 -84.0056 79° East 483 556 31,000  Level Cleveland Center
11:38PM 42.3769 -83.8269 79° East 483 556 31,000  Level Cleveland Center
11:39PM 42.4025 -83.6511 79° East 483 556 31,000  Level Cleveland Center
11:40PM 42.4117 -83.4631 86° East 491 565 31,000  Level Cleveland Center
11:41PM 42.4181 -83.2806 87° East 491 565 31,000  Level Cleveland Center
11:42PM 42.4242 -83.1119 87° East 491 565 31,000  Level Cleveland Center
11:43PM 42.4300 -82.9294 87° East 491 565 31,000  Level Cleveland Center
11:44PM 42.4356 -82.7467 88° East 491 565 31,000  Level Cleveland Center
11:45PM 42.4411 -82.5639 88° East 491 565 31,000  Level Cleveland Center
11:46PM 42.4461 -82.3811 88° East 491 565 31,000  Level Cleveland Center
11:47PM 42.4508 -82.2011 88° East 486 559 31,000  Level Cleveland Center
11:48PM 42.4553 -82.0381 88° East 480 552 31,000  Level Cleveland Center
11:49PM 42.4578 -81.8186 89° East 480 552 31,000  Level Cleveland Center
11:50PM 42.4658 -81.6414 86° East 472 543 31,000  Level Cleveland Center
11:51PM 42.4694 -81.4642 88° East 472 543 31,000  Level Cleveland Center
11:52PM 42.4728 -81.2814 89° East 487 560 31,000  Level Cleveland Center
11:53PM 42.4758 -81.0983 89° East 476 548 31,000  Level Cleveland Center
11:54PM 42.4783 -80.9181 89° East 476 548 31,000  Level Cleveland Center
11:55PM 42.4808 -80.7353 89° East 482 555 31,000  Level Cleveland Center
11:56PM 42.4831 -80.5719 89° East 482 555 31,000  Level Cleveland Center
11:57PM 42.4872 -80.3833 88° East 488 562 31,000  Level Cleveland Center
11:58PM 42.4867 -80.1975 90° East 493 567 31,000  Level Cleveland Center
11:59PM 42.4900 -80.0172 89° East 493 567 31,000  Level Cleveland Center
12:00AM 42.4911 -79.8172 90° East 486 559 31,000  Level Cleveland Center
12:01AM 42.4917 -79.6314 90° East 486 559 31,000  Level Cleveland Center
12:02AM 42.4900 -79.4486 91° East 486 559 31,000  Level Cleveland Center
12:03AM 42.4944 -79.2653 88° East 486 559 31,000  Level Cleveland Center
12:04AM 42.5047 -79.0819 86° East 486 559 31,000  Level Cleveland Center
12:05AM 42.5189 -78.9014 84° East 486 559 31,000  Level Cleveland Center
12:06AM 42.5306 -78.7181 85° East 481 554 31,000  Level Cleveland Center
12:07AM 42.5419 -78.5289 85° East 486 559 31,000  Level Cleveland Center
12:08AM 42.5531 -78.3453 85° East 486 559 31,000  Level Cleveland Center
12:09AM 42.5661 -78.1586 85° East 486 559 31,000  Level Cleveland Center
12:10AM 42.5767 -77.9750 85° East 491 565 31,000  Level Cleveland Center
12:11AM 42.5828 -77.7886 87° East 491 565 31,000 -480 Level Cleveland Center
12:12AM 42.5989 -77.6072 83° East 491 565 30,100 -720 Descending Cleveland Center
12:14AM 42.6178 -77.2431 86° East 505 581 29,000 -420 Descending Boston Center
12:15AM 42.6278 -77.0519 86° East 505 581 29,000  Level Boston Center
12:16AM 42.6375 -76.8633 86° East 499 574 29,000  Level Boston Center
12:17AM 42.6467 -76.6775 86° East 499 574 29,000 -60 Level Boston Center
12:18AM 42.6556 -76.4889 86° East 494 568 28,900 -1,200 Descending Boston Center
12:19AM 42.6639 -76.3086 86° East 488 562 26,600 -2,040 Descending Boston Center
12:21AM 42.6667 -76.1337 90° East  Level FlightAware Approximate
12:27AM 42.7131 -75.0089 90° East 393 452 11,100  Level Boston Center
12:28AM 42.7087 -75.0151 85° East  Level FlightAware Approximate
12:28AM 42.7167 -74.8506 88° East 363 418 11,100  Level Boston Center
12:29AM 42.7167 -74.8551 90° East  Level FlightAware Approximate
12:29AM 42.7236 -74.7125 86° East 364 419 11,100  Level Boston Center
12:30AM 42.7167 -74.6945 90° East  Level FlightAware Approximate
12:31AM 42.7174 -74.5414 83° East  Level FlightAware Approximate
12:31AM 42.7180 -74.5341 83° East  Level FlightAware Approximate
12:32AM 42.7313 -74.3746 83° East  Level FlightAware Approximate
12:33AM 42.7333 -74.2142 90° East  Level FlightAware Approximate
12:38AM 42.7333 -73.8000 90° East  Level FlightAware Approximate
12:39AM 42.7491 -73.8020 90° East  Level Estimated
12:40AM 42.7491 -73.8020 90° East  Level Estimated
12:41AM 42.7491 -73.8020 90° East  Level Estimated
12:42AM 42.7491 -73.8020 90° East  Level Estimated
12:43AM 42.7491 -73.8020 90° East  Level Estimated
12:44AM 42.7491 -73.8020 90° East  Level Estimated
12:45AM 42.7491 -73.8020 90° East  Level Estimated
12:46AM 42.7491 -73.8020 90° East  Level Estimated
12:47AM 42.7491 -73.8020 90° East  Level Estimated
12:48AM 42.7491 -73.8020 90° East  Level Estimated
12:49AM 42.7491 -73.8020 90° East  Level Estimated
12:50AM 42.7491 -73.8020 90° East  Level Estimated
12:51AM 42.7491 -73.8020 90° East  Level Estimated
12:52AM 42.7491 -73.8020 90° East  Level Estimated
12:53AM 42.7491 -73.8020 90° East  Level Estimated
12:54AM 42.7491 -73.8020 90° East  Level Estimated
12:55AM 42.7491 -73.8020 90° East  Level Estimated
12:56AM 42.7491 -73.8020 90° East  Level Estimated
12:57AM 42.7491 -73.8020 90° East  Level Estimated